sensor_id;sensor_type;location;lat;lon;timestamp;temperature;humidity
19232;DHT22;9750;48.730;10.294;2023-04-25T00:01:42;8.70;95.20
19232;DHT22;9750;48.730;10.294;2023-04-25T00:04:10;8.70;95.20
19232;DHT22;9750;48.730;10.294;2023-04-25T00:06:39;8.70;95.20
19232;DHT22;9750;48.730;10.294;2023-04-25T00:09:06;8.70;95.40
19232;DHT22;9750;48.730;10.294;2023-04-25T00:11:35;8.70;95.50
19232;DHT22;9750;48.730;10.294;2023-04-25T00:14:03;8.70;95.50
19232;DHT22;9750;48.730;10.294;2023-04-25T00:16:32;8.70;95.30
19232;DHT22;9750;48.730;10.294;2023-04-25T00:19:00;8.80;95.30
19232;DHT22;9750;48.730;10.294;2023-04-25T00:21:30;8.90;95.30
19232;DHT22;9750;48.730;10.294;2023-04-25T00:23:58;8.90;95.20
19232;DHT22;9750;48.730;10.294;2023-04-25T00:26:27;8.90;95.40
19232;DHT22;9750;48.730;10.294;2023-04-25T00:28:54;8.90;95.50
19232;DHT22;9750;48.730;10.294;2023-04-25T00:31:22;8.80;95.40
19232;DHT22;9750;48.730;10.294;2023-04-25T00:33:49;8.80;95.50
19232;DHT22;9750;48.730;10.294;2023-04-25T00:36:16;8.80;95.50
19232;DHT22;9750;48.730;10.294;2023-04-25T00:38:45;8.70;95.60
19232;DHT22;9750;48.730;10.294;2023-04-25T00:41:12;8.80;95.70
19232;DHT22;9750;48.730;10.294;2023-04-25T00:43:40;8.70;95.60
19232;DHT22;9750;48.730;10.294;2023-04-25T00:46:07;8.80;95.60
19232;DHT22;9750;48.730;10.294;2023-04-25T00:48:34;8.80;95.60
19232;DHT22;9750;48.730;10.294;2023-04-25T00:51:02;8.80;95.50
19232;DHT22;9750;48.730;10.294;2023-04-25T00:53:30;8.80;95.60
19232;DHT22;9750;48.730;10.294;2023-04-25T00:55:59;8.80;95.50
19232;DHT22;9750;48.730;10.294;2023-04-25T00:58:26;8.90;95.80
19232;DHT22;9750;48.730;10.294;2023-04-25T01:00:53;8.80;96.00
19232;DHT22;9750;48.730;10.294;2023-04-25T01:03:21;8.80;96.10
19232;DHT22;9750;48.730;10.294;2023-04-25T01:05:50;8.80;95.90
19232;DHT22;9750;48.730;10.294;2023-04-25T01:08:17;8.80;96.00
19232;DHT22;9750;48.730;10.294;2023-04-25T01:10:45;8.80;96.00
19232;DHT22;9750;48.730;10.294;2023-04-25T01:13:13;8.80;95.90
19232;DHT22;9750;48.730;10.294;2023-04-25T01:15:41;8.80;95.90
19232;DHT22;9750;48.730;10.294;2023-04-25T01:18:08;8.80;96.00
19232;DHT22;9750;48.730;10.294;2023-04-25T01:20:37;8.80;96.00
19232;DHT22;9750;48.730;10.294;2023-04-25T01:23:07;8.70;96.00
19232;DHT22;9750;48.730;10.294;2023-04-25T01:25:34;8.70;96.00
19232;DHT22;9750;48.730;10.294;2023-04-25T01:28:02;8.60;95.80
19232;DHT22;9750;48.730;10.294;2023-04-25T01:30:29;8.60;96.00
19232;DHT22;9750;48.730;10.294;2023-04-25T01:32:57;8.60;95.80
19232;DHT22;9750;48.730;10.294;2023-04-25T01:35:24;8.50;95.90
19232;DHT22;9750;48.730;10.294;2023-04-25T01:37:52;8.50;96.10
19232;DHT22;9750;48.730;10.294;2023-04-25T01:40:21;8.40;96.10
19232;DHT22;9750;48.730;10.294;2023-04-25T01:42:49;8.40;96.10
19232;DHT22;9750;48.730;10.294;2023-04-25T01:45:16;8.40;96.00
19232;DHT22;9750;48.730;10.294;2023-04-25T01:47:44;8.30;96.20
19232;DHT22;9750;48.730;10.294;2023-04-25T01:50:15;8.30;96.20
19232;DHT22;9750;48.730;10.294;2023-04-25T01:52:43;8.40;96.30
19232;DHT22;9750;48.730;10.294;2023-04-25T01:55:10;8.40;96.30
19232;DHT22;9750;48.730;10.294;2023-04-25T01:57:39;8.40;96.50
19232;DHT22;9750;48.730;10.294;2023-04-25T02:00:07;8.50;96.70
19232;DHT22;9750;48.730;10.294;2023-04-25T02:02:34;8.50;96.60
19232;DHT22;9750;48.730;10.294;2023-04-25T02:05:02;8.50;96.60
19232;DHT22;9750;48.730;10.294;2023-04-25T02:07:29;8.50;96.70
19232;DHT22;9750;48.730;10.294;2023-04-25T02:09:56;8.60;96.60
19232;DHT22;9750;48.730;10.294;2023-04-25T02:12:24;8.60;96.50
19232;DHT22;9750;48.730;10.294;2023-04-25T02:14:53;8.60;96.60
19232;DHT22;9750;48.730;10.294;2023-04-25T02:20:29;8.60;96.50
19232;DHT22;9750;48.730;10.294;2023-04-25T02:22:57;8.60;96.40
19232;DHT22;9750;48.730;10.294;2023-04-25T02:25:24;8.50;96.40
19232;DHT22;9750;48.730;10.294;2023-04-25T02:27:51;8.60;96.40
19232;DHT22;9750;48.730;10.294;2023-04-25T02:30:21;8.50;96.30
19232;DHT22;9750;48.730;10.294;2023-04-25T02:32:48;8.60;96.70
19232;DHT22;9750;48.730;10.294;2023-04-25T02:35:15;8.60;96.50
19232;DHT22;9750;48.730;10.294;2023-04-25T02:41:04;8.60;96.40
19232;DHT22;9750;48.730;10.294;2023-04-25T02:43:31;8.60;96.50
19232;DHT22;9750;48.730;10.294;2023-04-25T02:46:00;8.60;96.50
19232;DHT22;9750;48.730;10.294;2023-04-25T02:48:27;8.70;96.50
19232;DHT22;9750;48.730;10.294;2023-04-25T02:50:55;8.70;96.50
19232;DHT22;9750;48.730;10.294;2023-04-25T02:53:22;8.70;96.50
19232;DHT22;9750;48.730;10.294;2023-04-25T02:55:49;8.70;96.70
19232;DHT22;9750;48.730;10.294;2023-04-25T02:58:18;8.70;96.40
19232;DHT22;9750;48.730;10.294;2023-04-25T03:00:45;8.70;96.50
19232;DHT22;9750;48.730;10.294;2023-04-25T03:03:14;8.70;96.40
19232;DHT22;9750;48.730;10.294;2023-04-25T03:05:43;8.60;96.60
19232;DHT22;9750;48.730;10.294;2023-04-25T03:08:10;8.60;96.40
19232;DHT22;9750;48.730;10.294;2023-04-25T03:10:38;8.60;96.60
19232;DHT22;9750;48.730;10.294;2023-04-25T03:13:06;8.60;96.40
19232;DHT22;9750;48.730;10.294;2023-04-25T03:15:33;8.70;96.60
19232;DHT22;9750;48.730;10.294;2023-04-25T03:18:00;8.70;96.50
19232;DHT22;9750;48.730;10.294;2023-04-25T03:20:29;8.70;96.70
19232;DHT22;9750;48.730;10.294;2023-04-25T03:22:56;8.70;96.70
19232;DHT22;9750;48.730;10.294;2023-04-25T03:25:23;8.70;96.70
19232;DHT22;9750;48.730;10.294;2023-04-25T03:27:51;8.70;96.80
19232;DHT22;9750;48.730;10.294;2023-04-25T03:30:18;8.70;96.90
19232;DHT22;9750;48.730;10.294;2023-04-25T03:32:45;8.60;96.90
19232;DHT22;9750;48.730;10.294;2023-04-25T03:35:12;8.60;97.00
19232;DHT22;9750;48.730;10.294;2023-04-25T03:37:41;8.60;96.80
19232;DHT22;9750;48.730;10.294;2023-04-25T03:40:11;8.60;97.10
19232;DHT22;9750;48.730;10.294;2023-04-25T03:42:38;8.50;96.90
19232;DHT22;9750;48.730;10.294;2023-04-25T03:45:07;8.50;97.00
19232;DHT22;9750;48.730;10.294;2023-04-25T03:47:38;8.60;97.00
19232;DHT22;9750;48.730;10.294;2023-04-25T03:50:06;8.60;96.90
19232;DHT22;9750;48.730;10.294;2023-04-25T03:52:34;8.60;97.00
19232;DHT22;9750;48.730;10.294;2023-04-25T03:55:03;8.50;97.00
19232;DHT22;9750;48.730;10.294;2023-04-25T04:00:52;8.50;97.00
19232;DHT22;9750;48.730;10.294;2023-04-25T04:03:19;8.50;96.90
19232;DHT22;9750;48.730;10.294;2023-04-25T04:05:47;8.50;96.90
19232;DHT22;9750;48.730;10.294;2023-04-25T04:11:38;8.50;97.00
19232;DHT22;9750;48.730;10.294;2023-04-25T04:14:05;8.40;97.10
19232;DHT22;9750;48.730;10.294;2023-04-25T04:16:32;8.40;97.20
19232;DHT22;9750;48.730;10.294;2023-04-25T04:19:00;8.40;97.20
19232;DHT22;9750;48.730;10.294;2023-04-25T04:21:27;8.40;97.20
19232;DHT22;9750;48.730;10.294;2023-04-25T04:23:54;8.40;97.20
19232;DHT22;9750;48.730;10.294;2023-04-25T04:26:23;8.40;97.30
19232;DHT22;9750;48.730;10.294;2023-04-25T04:28:53;8.30;97.30
19232;DHT22;9750;48.730;10.294;2023-04-25T04:31:20;8.40;97.30
19232;DHT22;9750;48.730;10.294;2023-04-25T04:33:48;8.40;97.20
19232;DHT22;9750;48.730;10.294;2023-04-25T04:36:15;8.40;97.10
19232;DHT22;9750;48.730;10.294;2023-04-25T04:38:45;8.40;97.00
19232;DHT22;9750;48.730;10.294;2023-04-25T04:41:15;8.40;97.10
19232;DHT22;9750;48.730;10.294;2023-04-25T04:43:43;8.40;97.20
19232;DHT22;9750;48.730;10.294;2023-04-25T04:46:11;8.40;97.30
19232;DHT22;9750;48.730;10.294;2023-04-25T04:48:40;8.40;97.20
19232;DHT22;9750;48.730;10.294;2023-04-25T04:51:07;8.40;97.20
19232;DHT22;9750;48.730;10.294;2023-04-25T04:53:34;8.40;97.20
19232;DHT22;9750;48.730;10.294;2023-04-25T04:56:02;8.40;97.30
19232;DHT22;9750;48.730;10.294;2023-04-25T04:58:29;8.40;97.30
19232;DHT22;9750;48.730;10.294;2023-04-25T05:00:56;8.30;97.30
19232;DHT22;9750;48.730;10.294;2023-04-25T05:03:25;8.30;97.30
19232;DHT22;9750;48.730;10.294;2023-04-25T05:05:53;8.30;97.30
19232;DHT22;9750;48.730;10.294;2023-04-25T05:08:23;8.30;97.30
19232;DHT22;9750;48.730;10.294;2023-04-25T05:10:50;8.30;97.30
19232;DHT22;9750;48.730;10.294;2023-04-25T05:13:17;8.30;97.20
19232;DHT22;9750;48.730;10.294;2023-04-25T05:15:45;8.30;97.10
19232;DHT22;9750;48.730;10.294;2023-04-25T05:18:12;8.40;97.10
19232;DHT22;9750;48.730;10.294;2023-04-25T05:20:41;8.50;97.10
19232;DHT22;9750;48.730;10.294;2023-04-25T05:23:08;8.60;96.90
19232;DHT22;9750;48.730;10.294;2023-04-25T05:25:35;8.70;97.00
19232;DHT22;9750;48.730;10.294;2023-04-25T05:28:03;8.70;97.00
19232;DHT22;9750;48.730;10.294;2023-04-25T05:30:30;8.80;97.00
19232;DHT22;9750;48.730;10.294;2023-04-25T05:32:58;8.80;97.00
19232;DHT22;9750;48.730;10.294;2023-04-25T05:35:25;8.80;96.80
19232;DHT22;9750;48.730;10.294;2023-04-25T05:37:54;8.90;96.80
19232;DHT22;9750;48.730;10.294;2023-04-25T05:40:21;8.90;96.80
19232;DHT22;9750;48.730;10.294;2023-04-25T05:42:48;8.90;97.00
19232;DHT22;9750;48.730;10.294;2023-04-25T05:45:16;8.90;97.10
19232;DHT22;9750;48.730;10.294;2023-04-25T05:47:44;9.00;97.30
19232;DHT22;9750;48.730;10.294;2023-04-25T05:50:11;9.00;97.40
19232;DHT22;9750;48.730;10.294;2023-04-25T05:52:38;9.10;97.40
19232;DHT22;9750;48.730;10.294;2023-04-25T05:55:08;9.10;97.20
19232;DHT22;9750;48.730;10.294;2023-04-25T05:57:35;9.20;97.20
19232;DHT22;9750;48.730;10.294;2023-04-25T06:00:03;9.20;97.40
19232;DHT22;9750;48.730;10.294;2023-04-25T06:02:34;9.30;97.40
19232;DHT22;9750;48.730;10.294;2023-04-25T06:05:02;9.30;97.50
19232;DHT22;9750;48.730;10.294;2023-04-25T06:07:30;9.30;97.80
19232;DHT22;9750;48.730;10.294;2023-04-25T06:09:58;9.40;97.90
19232;DHT22;9750;48.730;10.294;2023-04-25T06:12:27;9.30;97.90
19232;DHT22;9750;48.730;10.294;2023-04-25T06:14:55;9.30;97.90
19232;DHT22;9750;48.730;10.294;2023-04-25T06:17:22;9.20;97.70
19232;DHT22;9750;48.730;10.294;2023-04-25T06:19:49;9.20;98.00
19232;DHT22;9750;48.730;10.294;2023-04-25T06:22:16;9.20;97.50
19232;DHT22;9750;48.730;10.294;2023-04-25T06:24:44;9.20;97.50
19232;DHT22;9750;48.730;10.294;2023-04-25T06:27:11;9.20;97.40
19232;DHT22;9750;48.730;10.294;2023-04-25T06:29:40;9.20;97.20
19232;DHT22;9750;48.730;10.294;2023-04-25T06:32:07;9.20;97.30
19232;DHT22;9750;48.730;10.294;2023-04-25T06:34:34;9.20;97.30
19232;DHT22;9750;48.730;10.294;2023-04-25T06:37:01;9.10;97.00
19232;DHT22;9750;48.730;10.294;2023-04-25T06:39:29;9.10;96.90
19232;DHT22;9750;48.730;10.294;2023-04-25T06:41:56;9.10;97.40
19232;DHT22;9750;48.730;10.294;2023-04-25T06:44:23;9.20;97.30
19232;DHT22;9750;48.730;10.294;2023-04-25T06:46:53;9.20;97.10
19232;DHT22;9750;48.730;10.294;2023-04-25T06:49:20;9.20;96.90
19232;DHT22;9750;48.730;10.294;2023-04-25T06:51:48;9.20;96.70
19232;DHT22;9750;48.730;10.294;2023-04-25T06:54:15;9.20;96.90
19232;DHT22;9750;48.730;10.294;2023-04-25T06:56:43;9.30;96.90
19232;DHT22;9750;48.730;10.294;2023-04-25T06:59:10;9.30;96.70
19232;DHT22;9750;48.730;10.294;2023-04-25T07:01:37;9.40;96.50
19232;DHT22;9750;48.730;10.294;2023-04-25T07:04:13;9.50;96.40
19232;DHT22;9750;48.730;10.294;2023-04-25T07:06:43;9.50;96.40
19232;DHT22;9750;48.730;10.294;2023-04-25T07:09:17;9.70;96.50
19232;DHT22;9750;48.730;10.294;2023-04-25T07:11:47;9.70;95.90
19232;DHT22;9750;48.730;10.294;2023-04-25T07:14:14;9.80;95.90
19232;DHT22;9750;48.730;10.294;2023-04-25T07:16:42;9.80;95.80
19232;DHT22;9750;48.730;10.294;2023-04-25T07:19:14;9.90;95.80
19232;DHT22;9750;48.730;10.294;2023-04-25T07:21:41;9.90;95.80
19232;DHT22;9750;48.730;10.294;2023-04-25T07:27:44;10.00;95.30
19232;DHT22;9750;48.730;10.294;2023-04-25T07:30:13;10.00;95.40
19232;DHT22;9750;48.730;10.294;2023-04-25T07:32:41;9.80;95.10
19232;DHT22;9750;48.730;10.294;2023-04-25T07:35:10;9.80;95.20
19232;DHT22;9750;48.730;10.294;2023-04-25T07:37:37;9.90;95.10
19232;DHT22;9750;48.730;10.294;2023-04-25T07:40:05;9.80;94.70
19232;DHT22;9750;48.730;10.294;2023-04-25T07:42:33;9.90;94.60
19232;DHT22;9750;48.730;10.294;2023-04-25T07:45:00;9.90;94.40
19232;DHT22;9750;48.730;10.294;2023-04-25T07:47:40;10.00;93.50
19232;DHT22;9750;48.730;10.294;2023-04-25T07:50:10;10.10;94.10
19232;DHT22;9750;48.730;10.294;2023-04-25T07:52:37;10.00;93.50
19232;DHT22;9750;48.730;10.294;2023-04-25T07:55:05;10.00;94.30
19232;DHT22;9750;48.730;10.294;2023-04-25T07:57:32;10.00;94.00
19232;DHT22;9750;48.730;10.294;2023-04-25T08:00:00;9.90;93.40
19232;DHT22;9750;48.730;10.294;2023-04-25T08:02:27;9.80;93.50
19232;DHT22;9750;48.730;10.294;2023-04-25T08:04:54;9.70;93.80
19232;DHT22;9750;48.730;10.294;2023-04-25T08:07:23;9.70;93.50
19232;DHT22;9750;48.730;10.294;2023-04-25T08:09:50;9.60;93.70
19232;DHT22;9750;48.730;10.294;2023-04-25T08:12:18;9.70;94.50
19232;DHT22;9750;48.730;10.294;2023-04-25T08:14:45;9.70;94.10
19232;DHT22;9750;48.730;10.294;2023-04-25T08:17:12;9.80;93.30
19232;DHT22;9750;48.730;10.294;2023-04-25T08:19:40;9.80;93.50
19232;DHT22;9750;48.730;10.294;2023-04-25T08:22:07;9.80;93.10
19232;DHT22;9750;48.730;10.294;2023-04-25T08:24:36;9.80;92.90
19232;DHT22;9750;48.730;10.294;2023-04-25T08:27:03;9.80;93.30
19232;DHT22;9750;48.730;10.294;2023-04-25T08:29:30;9.80;92.80
19232;DHT22;9750;48.730;10.294;2023-04-25T08:31:57;9.80;93.60
19232;DHT22;9750;48.730;10.294;2023-04-25T08:34:39;9.80;93.80
19232;DHT22;9750;48.730;10.294;2023-04-25T08:37:08;9.80;93.80
19232;DHT22;9750;48.730;10.294;2023-04-25T08:39:50;9.90;94.00
19232;DHT22;9750;48.730;10.294;2023-04-25T08:42:19;9.80;94.00
19232;DHT22;9750;48.730;10.294;2023-04-25T08:44:49;9.70;93.90
19232;DHT22;9750;48.730;10.294;2023-04-25T08:47:21;9.80;94.20
19232;DHT22;9750;48.730;10.294;2023-04-25T08:49:50;9.90;94.10
19232;DHT22;9750;48.730;10.294;2023-04-25T08:52:21;10.00;93.70
19232;DHT22;9750;48.730;10.294;2023-04-25T08:54:54;10.10;93.90
19232;DHT22;9750;48.730;10.294;2023-04-25T08:57:27;10.10;93.20
19232;DHT22;9750;48.730;10.294;2023-04-25T08:59:57;10.00;93.80
19232;DHT22;9750;48.730;10.294;2023-04-25T09:02:25;10.00;93.90
19232;DHT22;9750;48.730;10.294;2023-04-25T09:04:54;10.00;93.70
19232;DHT22;9750;48.730;10.294;2023-04-25T09:07:21;10.00;94.20
19232;DHT22;9750;48.730;10.294;2023-04-25T09:09:50;10.10;94.40
19232;DHT22;9750;48.730;10.294;2023-04-25T09:12:18;10.00;93.90
19232;DHT22;9750;48.730;10.294;2023-04-25T09:15:02;9.90;94.00
19232;DHT22;9750;48.730;10.294;2023-04-25T09:17:30;9.90;95.20
19232;DHT22;9750;48.730;10.294;2023-04-25T09:20:06;9.90;95.40
19232;DHT22;9750;48.730;10.294;2023-04-25T09:22:34;9.90;94.70
19232;DHT22;9750;48.730;10.294;2023-04-25T09:25:07;9.90;94.60
19232;DHT22;9750;48.730;10.294;2023-04-25T09:38:09;10.10;95.00
19232;DHT22;9750;48.730;10.294;2023-04-25T09:40:51;10.30;94.60
19232;DHT22;9750;48.730;10.294;2023-04-25T09:43:19;10.20;95.30
19232;DHT22;9750;48.730;10.294;2023-04-25T09:45:48;10.30;95.20
19232;DHT22;9750;48.730;10.294;2023-04-25T09:48:17;10.30;94.80
19232;DHT22;9750;48.730;10.294;2023-04-25T09:50:46;10.40;94.80
19232;DHT22;9750;48.730;10.294;2023-04-25T09:53:17;10.40;94.60
19232;DHT22;9750;48.730;10.294;2023-04-25T09:55:47;10.40;94.20
19232;DHT22;9750;48.730;10.294;2023-04-25T09:58:16;10.50;94.40
19232;DHT22;9750;48.730;10.294;2023-04-25T10:00:44;10.50;93.90
19232;DHT22;9750;48.730;10.294;2023-04-25T10:03:11;10.50;94.00
19232;DHT22;9750;48.730;10.294;2023-04-25T10:05:39;10.40;93.80
19232;DHT22;9750;48.730;10.294;2023-04-25T10:08:11;10.30;93.40
19232;DHT22;9750;48.730;10.294;2023-04-25T10:10:40;10.30;92.80
19232;DHT22;9750;48.730;10.294;2023-04-25T10:13:08;10.40;93.00
19232;DHT22;9750;48.730;10.294;2023-04-25T10:15:37;10.50;92.60
19232;DHT22;9750;48.730;10.294;2023-04-25T10:18:06;10.60;92.30
19232;DHT22;9750;48.730;10.294;2023-04-25T10:20:35;10.60;92.70
19232;DHT22;9750;48.730;10.294;2023-04-25T10:23:07;10.70;92.30
19232;DHT22;9750;48.730;10.294;2023-04-25T10:25:37;10.70;92.80
19232;DHT22;9750;48.730;10.294;2023-04-25T10:31:03;10.70;93.10
19232;DHT22;9750;48.730;10.294;2023-04-25T10:33:40;10.80;93.40
19232;DHT22;9750;48.730;10.294;2023-04-25T10:36:23;10.90;92.70
19232;DHT22;9750;48.730;10.294;2023-04-25T10:39:03;10.90;92.10
19232;DHT22;9750;48.730;10.294;2023-04-25T10:41:46;10.90;91.70
19232;DHT22;9750;48.730;10.294;2023-04-25T10:44:14;10.90;90.50
19232;DHT22;9750;48.730;10.294;2023-04-25T10:46:44;11.00;90.50
19232;DHT22;9750;48.730;10.294;2023-04-25T10:49:29;11.00;90.60
19232;DHT22;9750;48.730;10.294;2023-04-25T10:52:15;11.00;91.30
19232;DHT22;9750;48.730;10.294;2023-04-25T10:54:45;11.00;91.70
19232;DHT22;9750;48.730;10.294;2023-04-25T10:57:29;11.10;92.30
19232;DHT22;9750;48.730;10.294;2023-04-25T11:00:00;11.10;91.80
19232;DHT22;9750;48.730;10.294;2023-04-25T11:02:37;11.10;91.60
19232;DHT22;9750;48.730;10.294;2023-04-25T11:05:05;11.00;91.50
19232;DHT22;9750;48.730;10.294;2023-04-25T11:07:37;11.00;92.10
19232;DHT22;9750;48.730;10.294;2023-04-25T11:10:06;11.10;91.90
19232;DHT22;9750;48.730;10.294;2023-04-25T11:12:33;11.20;92.30
19232;DHT22;9750;48.730;10.294;2023-04-25T11:15:05;11.20;92.10
19232;DHT22;9750;48.730;10.294;2023-04-25T11:17:34;11.20;91.70
19232;DHT22;9750;48.730;10.294;2023-04-25T11:20:02;11.30;91.70
19232;DHT22;9750;48.730;10.294;2023-04-25T11:22:32;11.30;91.30
19232;DHT22;9750;48.730;10.294;2023-04-25T11:25:05;11.40;91.50
19232;DHT22;9750;48.730;10.294;2023-04-25T11:27:33;11.30;91.10
19232;DHT22;9750;48.730;10.294;2023-04-25T11:30:10;11.20;91.90
19232;DHT22;9750;48.730;10.294;2023-04-25T11:32:41;11.20;91.40
19232;DHT22;9750;48.730;10.294;2023-04-25T11:35:13;11.20;91.10
19232;DHT22;9750;48.730;10.294;2023-04-25T11:41:08;11.10;91.30
19232;DHT22;9750;48.730;10.294;2023-04-25T11:43:53;11.10;91.40
19232;DHT22;9750;48.730;10.294;2023-04-25T11:46:45;11.10;91.70
19232;DHT22;9750;48.730;10.294;2023-04-25T11:53:16;11.10;90.90
19232;DHT22;9750;48.730;10.294;2023-04-25T11:56:09;11.10;91.00
19232;DHT22;9750;48.730;10.294;2023-04-25T11:59:08;11.10;91.10
19232;DHT22;9750;48.730;10.294;2023-04-25T12:02:23;11.20;91.20
19232;DHT22;9750;48.730;10.294;2023-04-25T12:05:45;11.20;90.50
19232;DHT22;9750;48.730;10.294;2023-04-25T12:15:43;11.00;91.10
19232;DHT22;9750;48.730;10.294;2023-04-25T12:18:12;11.00;91.40
19232;DHT22;9750;48.730;10.294;2023-04-25T12:21:01;11.00;91.40
19232;DHT22;9750;48.730;10.294;2023-04-25T12:23:55;11.00;91.40
19232;DHT22;9750;48.730;10.294;2023-04-25T12:30:19;10.90;92.20
19232;DHT22;9750;48.730;10.294;2023-04-25T12:33:37;10.90;92.00
19232;DHT22;9750;48.730;10.294;2023-04-25T12:36:26;10.80;91.90
19232;DHT22;9750;48.730;10.294;2023-04-25T12:39:20;10.70;92.20
19232;DHT22;9750;48.730;10.294;2023-04-25T12:42:04;10.60;92.80
19232;DHT22;9750;48.730;10.294;2023-04-25T12:44:43;10.50;93.10
19232;DHT22;9750;48.730;10.294;2023-04-25T12:48:44;10.40;93.50
19232;DHT22;9750;48.730;10.294;2023-04-25T12:50:53;10.30;93.50
19232;DHT22;9750;48.730;10.294;2023-04-25T12:53:26;10.00;96.40
19232;DHT22;9750;48.730;10.294;2023-04-25T12:58:30;9.30;99.90
19232;DHT22;9750;48.730;10.294;2023-04-25T13:01:02;9.10;99.90
19232;DHT22;9750;48.730;10.294;2023-04-25T13:03:41;9.10;99.90
19232;DHT22;9750;48.730;10.294;2023-04-25T13:06:14;9.30;99.40
19232;DHT22;9750;48.730;10.294;2023-04-25T13:08:42;9.40;97.90
19232;DHT22;9750;48.730;10.294;2023-04-25T13:11:21;9.30;98.00
19232;DHT22;9750;48.730;10.294;2023-04-25T13:13:50;9.30;98.00
19232;DHT22;9750;48.730;10.294;2023-04-25T13:16:21;9.30;98.00
19232;DHT22;9750;48.730;10.294;2023-04-25T13:19:25;9.40;97.40
19232;DHT22;9750;48.730;10.294;2023-04-25T13:22:18;9.50;96.70
19232;DHT22;9750;48.730;10.294;2023-04-25T13:24:46;9.60;96.60
19232;DHT22;9750;48.730;10.294;2023-04-25T13:27:15;9.80;97.50
19232;DHT22;9750;48.730;10.294;2023-04-25T13:29:44;9.90;96.20
19232;DHT22;9750;48.730;10.294;2023-04-25T13:32:18;10.10;96.60
19232;DHT22;9750;48.730;10.294;2023-04-25T13:34:48;10.20;96.70
19232;DHT22;9750;48.730;10.294;2023-04-25T13:37:19;10.30;96.40
19232;DHT22;9750;48.730;10.294;2023-04-25T13:39:50;10.40;96.10
19232;DHT22;9750;48.730;10.294;2023-04-25T13:42:17;10.40;96.00
19232;DHT22;9750;48.730;10.294;2023-04-25T13:44:46;10.60;95.80
19232;DHT22;9750;48.730;10.294;2023-04-25T13:50:35;10.90;94.80
19232;DHT22;9750;48.730;10.294;2023-04-25T13:53:02;10.90;94.90
19232;DHT22;9750;48.730;10.294;2023-04-25T13:55:30;11.10;94.60
19232;DHT22;9750;48.730;10.294;2023-04-25T13:58:01;11.20;94.20
19232;DHT22;9750;48.730;10.294;2023-04-25T14:00:35;11.10;94.30
19232;DHT22;9750;48.730;10.294;2023-04-25T14:03:03;10.90;93.40
19232;DHT22;9750;48.730;10.294;2023-04-25T14:05:33;10.80;93.40
19232;DHT22;9750;48.730;10.294;2023-04-25T14:08:05;10.70;94.70
19232;DHT22;9750;48.730;10.294;2023-04-25T14:10:32;10.60;94.10
19232;DHT22;9750;48.730;10.294;2023-04-25T14:13:08;10.60;94.10
19232;DHT22;9750;48.730;10.294;2023-04-25T14:16:26;10.50;94.30
19232;DHT22;9750;48.730;10.294;2023-04-25T14:18:53;10.50;94.10
19232;DHT22;9750;48.730;10.294;2023-04-25T14:21:21;10.40;93.40
19232;DHT22;9750;48.730;10.294;2023-04-25T14:23:51;10.40;93.90
19232;DHT22;9750;48.730;10.294;2023-04-25T14:26:21;10.30;94.70
19232;DHT22;9750;48.730;10.294;2023-04-25T14:28:49;10.20;94.50
19232;DHT22;9750;48.730;10.294;2023-04-25T14:31:16;10.10;94.60
19232;DHT22;9750;48.730;10.294;2023-04-25T14:33:45;10.00;94.40
19232;DHT22;9750;48.730;10.294;2023-04-25T14:36:13;10.10;94.30
19232;DHT22;9750;48.730;10.294;2023-04-25T14:38:41;10.20;94.40
19232;DHT22;9750;48.730;10.294;2023-04-25T14:41:13;10.20;94.40
19232;DHT22;9750;48.730;10.294;2023-04-25T14:43:40;10.30;93.90
19232;DHT22;9750;48.730;10.294;2023-04-25T14:46:16;10.40;94.00
19232;DHT22;9750;48.730;10.294;2023-04-25T14:48:45;10.50;94.20
19232;DHT22;9750;48.730;10.294;2023-04-25T14:51:18;10.40;93.60
19232;DHT22;9750;48.730;10.294;2023-04-25T14:53:46;10.10;94.40
19232;DHT22;9750;48.730;10.294;2023-04-25T14:56:16;9.90;95.00
19232;DHT22;9750;48.730;10.294;2023-04-25T15:34:28;9.10;97.40
19232;DHT22;9750;48.730;10.294;2023-04-25T15:36:56;9.10;97.40
19232;DHT22;9750;48.730;10.294;2023-04-25T15:39:30;9.00;97.90
19232;DHT22;9750;48.730;10.294;2023-04-25T15:42:02;9.00;98.10
19232;DHT22;9750;48.730;10.294;2023-04-25T15:44:29;8.90;98.20
19232;DHT22;9750;48.730;10.294;2023-04-25T15:46:56;8.80;98.50
19232;DHT22;9750;48.730;10.294;2023-04-25T15:49:24;8.70;98.70
19232;DHT22;9750;48.730;10.294;2023-04-25T15:51:53;8.60;98.70
19232;DHT22;9750;48.730;10.294;2023-04-25T15:54:23;8.60;99.30
19232;DHT22;9750;48.730;10.294;2023-04-25T15:56:50;8.50;99.90
19232;DHT22;9750;48.730;10.294;2023-04-25T15:59:20;8.40;99.90
19232;DHT22;9750;48.730;10.294;2023-04-25T16:01:47;8.30;99.90
19232;DHT22;9750;48.730;10.294;2023-04-25T16:04:14;8.30;99.80
19232;DHT22;9750;48.730;10.294;2023-04-25T16:06:46;8.30;99.70
19232;DHT22;9750;48.730;10.294;2023-04-25T16:09:15;8.30;99.50
19232;DHT22;9750;48.730;10.294;2023-04-25T16:11:43;8.20;99.50
19232;DHT22;9750;48.730;10.294;2023-04-25T16:14:10;8.20;99.80
19232;DHT22;9750;48.730;10.294;2023-04-25T16:16:38;8.20;99.60
19232;DHT22;9750;48.730;10.294;2023-04-25T16:19:05;8.20;99.00
19232;DHT22;9750;48.730;10.294;2023-04-25T16:21:32;8.20;99.20
19232;DHT22;9750;48.730;10.294;2023-04-25T16:23:59;8.20;99.40
19232;DHT22;9750;48.730;10.294;2023-04-25T16:26:28;8.30;99.30
19232;DHT22;9750;48.730;10.294;2023-04-25T16:28:55;8.30;99.10
19232;DHT22;9750;48.730;10.294;2023-04-25T16:31:23;8.30;98.90
19232;DHT22;9750;48.730;10.294;2023-04-25T16:33:50;8.40;99.00
19232;DHT22;9750;48.730;10.294;2023-04-25T16:36:21;8.50;99.60
19232;DHT22;9750;48.730;10.294;2023-04-25T16:42:37;8.50;98.30
19232;DHT22;9750;48.730;10.294;2023-04-25T16:45:06;8.50;98.10
19232;DHT22;9750;48.730;10.294;2023-04-25T16:47:34;8.50;98.10
19232;DHT22;9750;48.730;10.294;2023-04-25T16:50:01;8.50;98.90
19232;DHT22;9750;48.730;10.294;2023-04-25T16:52:28;8.50;98.40
19232;DHT22;9750;48.730;10.294;2023-04-25T16:54:56;8.50;98.30
19232;DHT22;9750;48.730;10.294;2023-04-25T16:57:23;8.50;98.40
19232;DHT22;9750;48.730;10.294;2023-04-25T16:59:52;8.40;98.00
19232;DHT22;9750;48.730;10.294;2023-04-25T17:02:19;8.30;98.60
19232;DHT22;9750;48.730;10.294;2023-04-25T17:04:46;8.30;99.10
19232;DHT22;9750;48.730;10.294;2023-04-25T17:07:14;8.20;99.30
19232;DHT22;9750;48.730;10.294;2023-04-25T17:09:42;8.20;99.30
19232;DHT22;9750;48.730;10.294;2023-04-25T17:12:10;8.20;99.40
19232;DHT22;9750;48.730;10.294;2023-04-25T17:14:37;8.10;99.20
19232;DHT22;9750;48.730;10.294;2023-04-25T17:17:06;8.10;99.50
19232;DHT22;9750;48.730;10.294;2023-04-25T17:19:33;8.10;99.80
19232;DHT22;9750;48.730;10.294;2023-04-25T17:22:01;8.10;99.70
19232;DHT22;9750;48.730;10.294;2023-04-25T17:24:28;8.10;99.70
19232;DHT22;9750;48.730;10.294;2023-04-25T17:26:55;8.10;99.70
19232;DHT22;9750;48.730;10.294;2023-04-25T17:29:22;8.20;99.80
19232;DHT22;9750;48.730;10.294;2023-04-25T17:31:51;8.20;99.70
19232;DHT22;9750;48.730;10.294;2023-04-25T17:34:20;8.20;99.90
19232;DHT22;9750;48.730;10.294;2023-04-25T17:36:47;8.30;99.90